sensor_id;sensor_type;location;lat;lon;timestamp;P1;durP1;ratioP1;P2;durP2;ratioP2
60873;SDS011;46715;40.642;-7.920;2023-02-28T00:01:00;5.80;;;3.42;;
60873;SDS011;46715;40.642;-7.920;2023-02-28T00:03:01;5.60;;;2.63;;
60873;SDS011;46715;40.642;-7.920;2023-02-28T00:05:02;3.92;;;2.53;;
60873;SDS011;46715;40.642;-7.920;2023-02-28T00:07:04;7.63;;;2.80;;
60873;SDS011;46715;40.642;-7.920;2023-02-28T00:09:04;6.82;;;2.67;;
60873;SDS011;46715;40.642;-7.920;2023-02-28T00:11:09;9.32;;;3.08;;
60873;SDS011;46715;40.642;-7.920;2023-02-28T00:13:12;5.50;;;3.10;;
60873;SDS011;46715;40.642;-7.920;2023-02-28T00:15:14;5.60;;;3.03;;
60873;SDS011;46715;40.642;-7.920;2023-02-28T00:17:15;3.95;;;2.35;;
60873;SDS011;46715;40.642;-7.920;2023-02-28T00:19:19;6.15;;;2.22;;
60873;SDS011;46715;40.642;-7.920;2023-02-28T00:21:20;5.67;;;2.50;;
60873;SDS011;46715;40.642;-7.920;2023-02-28T00:23:21;6.75;;;2.83;;
60873;SDS011;46715;40.642;-7.920;2023-02-28T00:25:22;4.65;;;2.05;;
60873;SDS011;46715;40.642;-7.920;2023-02-28T00:27:25;4.22;;;2.20;;
60873;SDS011;46715;40.642;-7.920;2023-02-28T00:29:26;5.27;;;2.50;;
60873;SDS011;46715;40.642;-7.920;2023-02-28T00:31:26;6.47;;;2.23;;
60873;SDS011;46715;40.642;-7.920;2023-02-28T00:33:27;6.10;;;1.90;;
60873;SDS011;46715;40.642;-7.920;2023-02-28T00:35:29;3.65;;;2.13;;
60873;SDS011;46715;40.642;-7.920;2023-02-28T00:37:30;7.13;;;2.17;;
60873;SDS011;46715;40.642;-7.920;2023-02-28T00:39:31;5.13;;;2.13;;
60873;SDS011;46715;40.642;-7.920;2023-02-28T00:41:31;3.92;;;2.13;;
60873;SDS011;46715;40.642;-7.920;2023-02-28T00:43:35;6.93;;;2.05;;
60873;SDS011;46715;40.642;-7.920;2023-02-28T00:45:37;2.53;;;1.77;;
60873;SDS011;46715;40.642;-7.920;2023-02-28T00:47:38;5.00;;;1.90;;
60873;SDS011;46715;40.642;-7.920;2023-02-28T00:49:39;2.92;;;2.08;;
60873;SDS011;46715;40.642;-7.920;2023-02-28T00:51:43;3.80;;;1.73;;
60873;SDS011;46715;40.642;-7.920;2023-02-28T00:53:44;10.07;;;1.80;;
60873;SDS011;46715;40.642;-7.920;2023-02-28T00:55:44;3.25;;;1.83;;
60873;SDS011;46715;40.642;-7.920;2023-02-28T00:57:45;3.67;;;1.90;;
60873;SDS011;46715;40.642;-7.920;2023-02-28T00:59:46;4.47;;;2.10;;
60873;SDS011;46715;40.642;-7.920;2023-02-28T01:01:47;3.60;;;2.30;;
60873;SDS011;46715;40.642;-7.920;2023-02-28T01:03:48;7.20;;;2.30;;
60873;SDS011;46715;40.642;-7.920;2023-02-28T01:05:48;4.50;;;1.60;;
60873;SDS011;46715;40.642;-7.920;2023-02-28T01:07:50;4.65;;;1.98;;
60873;SDS011;46715;40.642;-7.920;2023-02-28T01:09:51;6.05;;;1.83;;
60873;SDS011;46715;40.642;-7.920;2023-02-28T01:11:52;5.10;;;2.23;;
60873;SDS011;46715;40.642;-7.920;2023-02-28T01:13:52;5.25;;;2.40;;
60873;SDS011;46715;40.642;-7.920;2023-02-28T01:15:54;6.83;;;2.17;;
60873;SDS011;46715;40.642;-7.920;2023-02-28T01:17:56;3.42;;;1.55;;
60873;SDS011;46715;40.642;-7.920;2023-02-28T01:19:57;3.92;;;1.70;;
60873;SDS011;46715;40.642;-7.920;2023-02-28T01:24:08;6.05;;;1.90;;
60873;SDS011;46715;40.642;-7.920;2023-02-28T01:26:10;5.30;;;1.75;;
60873;SDS011;46715;40.642;-7.920;2023-02-28T01:28:14;3.28;;;1.58;;
60873;SDS011;46715;40.642;-7.920;2023-02-28T01:30:15;6.60;;;1.83;;
60873;SDS011;46715;40.642;-7.920;2023-02-28T01:32:16;4.65;;;1.67;;
60873;SDS011;46715;40.642;-7.920;2023-02-28T01:34:17;4.05;;;2.25;;
60873;SDS011;46715;40.642;-7.920;2023-02-28T01:36:21;11.00;;;2.00;;
60873;SDS011;46715;40.642;-7.920;2023-02-28T01:38:23;5.10;;;1.52;;
60873;SDS011;46715;40.642;-7.920;2023-02-28T01:40:24;4.07;;;1.60;;
60873;SDS011;46715;40.642;-7.920;2023-02-28T01:42:25;4.15;;;1.85;;
60873;SDS011;46715;40.642;-7.920;2023-02-28T01:47:04;7.10;;;1.73;;
60873;SDS011;46715;40.642;-7.920;2023-02-28T01:49:12;8.48;;;1.65;;
60873;SDS011;46715;40.642;-7.920;2023-02-28T01:51:18;3.08;;;1.70;;
60873;SDS011;46715;40.642;-7.920;2023-02-28T01:53:24;4.97;;;1.77;;
60873;SDS011;46715;40.642;-7.920;2023-02-28T01:55:32;8.93;;;1.65;;
60873;SDS011;46715;40.642;-7.920;2023-02-28T01:57:35;2.92;;;1.63;;
60873;SDS011;46715;40.642;-7.920;2023-02-28T01:59:41;4.75;;;2.00;;
60873;SDS011;46715;40.642;-7.920;2023-02-28T02:01:46;4.65;;;1.60;;
60873;SDS011;46715;40.642;-7.920;2023-02-28T02:03:48;6.35;;;2.25;;
60873;SDS011;46715;40.642;-7.920;2023-02-28T02:05:55;9.05;;;2.13;;
60873;SDS011;46715;40.642;-7.920;2023-02-28T02:07:57;8.13;;;1.80;;
60873;SDS011;46715;40.642;-7.920;2023-02-28T02:10:10;5.60;;;1.90;;
60873;SDS011;46715;40.642;-7.920;2023-02-28T02:12:17;5.75;;;2.30;;
60873;SDS011;46715;40.642;-7.920;2023-02-28T02:14:27;4.72;;;1.95;;
60873;SDS011;46715;40.642;-7.920;2023-02-28T02:16:52;5.53;;;2.20;;
60873;SDS011;46715;40.642;-7.920;2023-02-28T02:19:11;5.43;;;1.80;;
60873;SDS011;46715;40.642;-7.920;2023-02-28T02:36:05;3.60;;;1.73;;
60873;SDS011;46715;40.642;-7.920;2023-02-28T02:38:09;2.70;;;1.40;;
60873;SDS011;46715;40.642;-7.920;2023-02-28T02:40:40;6.53;;;2.03;;
60873;SDS011;46715;40.642;-7.920;2023-02-28T02:44:54;6.00;;;2.00;;
60873;SDS011;46715;40.642;-7.920;2023-02-28T02:47:03;4.75;;;1.48;;
60873;SDS011;46715;40.642;-7.920;2023-02-28T02:49:12;4.90;;;1.35;;
60873;SDS011;46715;40.642;-7.920;2023-02-28T02:51:20;3.83;;;1.40;;
60873;SDS011;46715;40.642;-7.920;2023-02-28T02:53:32;2.95;;;1.30;;
60873;SDS011;46715;40.642;-7.920;2023-02-28T02:55:40;3.97;;;1.48;;
60873;SDS011;46715;40.642;-7.920;2023-02-28T02:57:51;3.88;;;1.60;;
60873;SDS011;46715;40.642;-7.920;2023-02-28T02:59:59;7.40;;;1.38;;
60873;SDS011;46715;40.642;-7.920;2023-02-28T03:02:04;4.28;;;1.52;;
60873;SDS011;46715;40.642;-7.920;2023-02-28T03:04:12;3.78;;;1.45;;
60873;SDS011;46715;40.642;-7.920;2023-02-28T03:06:17;4.05;;;1.60;;
60873;SDS011;46715;40.642;-7.920;2023-02-28T03:08:17;8.80;;;1.60;;
60873;SDS011;46715;40.642;-7.920;2023-02-28T03:10:37;8.85;;;2.22;;
60873;SDS011;46715;40.642;-7.920;2023-02-28T03:12:52;3.60;;;1.30;;
60873;SDS011;46715;40.642;-7.920;2023-02-28T03:15:18;6.15;;;1.73;;
60873;SDS011;46715;40.642;-7.920;2023-02-28T03:17:30;3.65;;;1.50;;
60873;SDS011;46715;40.642;-7.920;2023-02-28T03:24:21;3.15;;;1.42;;
60873;SDS011;46715;40.642;-7.920;2023-02-28T03:26:31;2.67;;;1.40;;
60873;SDS011;46715;40.642;-7.920;2023-02-28T03:29:38;5.93;;;1.75;;
60873;SDS011;46715;40.642;-7.920;2023-02-28T03:31:18;3.22;;;1.77;;
60873;SDS011;46715;40.642;-7.920;2023-02-28T03:33:28;6.70;;;1.55;;
60873;SDS011;46715;40.642;-7.920;2023-02-28T03:35:47;2.58;;;1.40;;
60873;SDS011;46715;40.642;-7.920;2023-02-28T03:38:00;6.07;;;1.45;;
60873;SDS011;46715;40.642;-7.920;2023-02-28T03:40:09;2.00;;;1.20;;
60873;SDS011;46715;40.642;-7.920;2023-02-28T03:42:18;7.28;;;1.33;;
60873;SDS011;46715;40.642;-7.920;2023-02-28T03:44:30;4.03;;;1.45;;
60873;SDS011;46715;40.642;-7.920;2023-02-28T03:46:36;2.90;;;1.40;;
60873;SDS011;46715;40.642;-7.920;2023-02-28T03:48:49;5.00;;;1.20;;
60873;SDS011;46715;40.642;-7.920;2023-02-28T03:50:54;2.95;;;1.48;;
60873;SDS011;46715;40.642;-7.920;2023-02-28T03:53:07;2.78;;;1.30;;
60873;SDS011;46715;40.642;-7.920;2023-02-28T03:55:14;5.70;;;1.70;;
60873;SDS011;46715;40.642;-7.920;2023-02-28T03:57:26;2.47;;;1.13;;
60873;SDS011;46715;40.642;-7.920;2023-02-28T04:00:10;3.47;;;1.50;;
60873;SDS011;46715;40.642;-7.920;2023-02-28T04:02:12;4.55;;;1.48;;
60873;SDS011;46715;40.642;-7.920;2023-02-28T04:04:13;3.65;;;1.60;;
60873;SDS011;46715;40.642;-7.920;2023-02-28T04:06:20;3.03;;;1.42;;
60873;SDS011;46715;40.642;-7.920;2023-02-28T04:08:22;2.17;;;1.20;;
60873;SDS011;46715;40.642;-7.920;2023-02-28T04:10:23;4.45;;;1.42;;
60873;SDS011;46715;40.642;-7.920;2023-02-28T04:12:24;6.60;;;1.52;;
60873;SDS011;46715;40.642;-7.920;2023-02-28T04:14:25;2.95;;;1.60;;
60873;SDS011;46715;40.642;-7.920;2023-02-28T04:16:26;5.83;;;2.00;;
60873;SDS011;46715;40.642;-7.920;2023-02-28T04:18:27;3.73;;;1.53;;
60873;SDS011;46715;40.642;-7.920;2023-02-28T04:20:28;4.00;;;1.40;;
60873;SDS011;46715;40.642;-7.920;2023-02-28T04:22:29;4.18;;;1.48;;
60873;SDS011;46715;40.642;-7.920;2023-02-28T04:24:29;2.03;;;1.38;;
60873;SDS011;46715;40.642;-7.920;2023-02-28T04:26:34;4.20;;;1.25;;
60873;SDS011;46715;40.642;-7.920;2023-02-28T04:28:36;3.78;;;1.45;;
60873;SDS011;46715;40.642;-7.920;2023-02-28T04:30:39;5.28;;;1.30;;
60873;SDS011;46715;40.642;-7.920;2023-02-28T04:32:39;2.60;;;1.50;;
60873;SDS011;46715;40.642;-7.920;2023-02-28T04:34:40;4.10;;;1.70;;
60873;SDS011;46715;40.642;-7.920;2023-02-28T04:36:41;4.57;;;1.65;;
60873;SDS011;46715;40.642;-7.920;2023-02-28T04:38:42;4.63;;;1.85;;
60873;SDS011;46715;40.642;-7.920;2023-02-28T04:40:43;6.53;;;1.60;;
60873;SDS011;46715;40.642;-7.920;2023-02-28T04:42:45;8.65;;;1.92;;
60873;SDS011;46715;40.642;-7.920;2023-02-28T04:44:45;8.63;;;1.50;;
60873;SDS011;46715;40.642;-7.920;2023-02-28T04:46:47;5.40;;;1.65;;
60873;SDS011;46715;40.642;-7.920;2023-02-28T04:48:49;4.93;;;1.48;;
60873;SDS011;46715;40.642;-7.920;2023-02-28T04:50:50;7.20;;;1.70;;
60873;SDS011;46715;40.642;-7.920;2023-02-28T04:52:52;2.67;;;1.52;;
60873;SDS011;46715;40.642;-7.920;2023-02-28T04:54:52;3.20;;;1.40;;
60873;SDS011;46715;40.642;-7.920;2023-02-28T04:56:53;4.10;;;1.50;;
60873;SDS011;46715;40.642;-7.920;2023-02-28T04:58:56;2.75;;;1.35;;
60873;SDS011;46715;40.642;-7.920;2023-02-28T05:01:04;2.90;;;1.45;;
60873;SDS011;46715;40.642;-7.920;2023-02-28T05:03:17;2.80;;;1.45;;
60873;SDS011;46715;40.642;-7.920;2023-02-28T05:05:18;4.75;;;1.55;;
60873;SDS011;46715;40.642;-7.920;2023-02-28T05:07:19;7.35;;;1.60;;
60873;SDS011;46715;40.642;-7.920;2023-02-28T05:09:19;4.20;;;1.23;;
60873;SDS011;46715;40.642;-7.920;2023-02-28T05:11:22;5.57;;;1.95;;
60873;SDS011;46715;40.642;-7.920;2023-02-28T05:13:25;4.68;;;1.70;;
60873;SDS011;46715;40.642;-7.920;2023-02-28T05:15:26;2.53;;;1.45;;
60873;SDS011;46715;40.642;-7.920;2023-02-28T05:17:27;5.18;;;1.35;;
60873;SDS011;46715;40.642;-7.920;2023-02-28T05:19:28;3.58;;;1.63;;
60873;SDS011;46715;40.642;-7.920;2023-02-28T05:21:30;2.55;;;1.38;;
60873;SDS011;46715;40.642;-7.920;2023-02-28T05:23:34;3.30;;;1.50;;
60873;SDS011;46715;40.642;-7.920;2023-02-28T05:25:35;2.33;;;1.33;;
60873;SDS011;46715;40.642;-7.920;2023-02-28T05:27:36;4.70;;;1.45;;
60873;SDS011;46715;40.642;-7.920;2023-02-28T05:29:37;4.80;;;1.50;;
60873;SDS011;46715;40.642;-7.920;2023-02-28T05:31:42;21.45;;;2.10;;
60873;SDS011;46715;40.642;-7.920;2023-02-28T05:33:42;2.78;;;1.60;;
60873;SDS011;46715;40.642;-7.920;2023-02-28T05:35:43;3.95;;;1.77;;
60873;SDS011;46715;40.642;-7.920;2023-02-28T05:37:44;3.25;;;1.48;;
60873;SDS011;46715;40.642;-7.920;2023-02-28T05:39:44;4.53;;;1.70;;
60873;SDS011;46715;40.642;-7.920;2023-02-28T05:41:45;3.23;;;1.30;;
60873;SDS011;46715;40.642;-7.920;2023-02-28T05:43:46;3.28;;;1.60;;
60873;SDS011;46715;40.642;-7.920;2023-02-28T05:45:48;3.13;;;1.95;;
60873;SDS011;46715;40.642;-7.920;2023-02-28T05:47:55;3.75;;;1.50;;
60873;SDS011;46715;40.642;-7.920;2023-02-28T05:49:56;7.93;;;1.80;;
60873;SDS011;46715;40.642;-7.920;2023-02-28T05:52:03;4.43;;;1.60;;
60873;SDS011;46715;40.642;-7.920;2023-02-28T05:54:04;5.50;;;1.80;;
60873;SDS011;46715;40.642;-7.920;2023-02-28T05:56:09;4.65;;;1.55;;
60873;SDS011;46715;40.642;-7.920;2023-02-28T05:58:10;3.17;;;1.80;;
60873;SDS011;46715;40.642;-7.920;2023-02-28T06:00:12;5.40;;;1.75;;
60873;SDS011;46715;40.642;-7.920;2023-02-28T06:02:15;4.22;;;1.70;;
60873;SDS011;46715;40.642;-7.920;2023-02-28T06:04:18;7.53;;;1.95;;
60873;SDS011;46715;40.642;-7.920;2023-02-28T06:06:20;2.70;;;1.48;;
60873;SDS011;46715;40.642;-7.920;2023-02-28T06:08:21;3.33;;;1.70;;
60873;SDS011;46715;40.642;-7.920;2023-02-28T06:10:22;3.03;;;1.60;;
60873;SDS011;46715;40.642;-7.920;2023-02-28T06:12:23;7.18;;;1.83;;
60873;SDS011;46715;40.642;-7.920;2023-02-28T06:14:23;4.63;;;2.03;;
60873;SDS011;46715;40.642;-7.920;2023-02-28T06:16:25;2.00;;;1.70;;
60873;SDS011;46715;40.642;-7.920;2023-02-28T06:18:27;6.30;;;1.90;;
60873;SDS011;46715;40.642;-7.920;2023-02-28T06:20:28;3.83;;;1.80;;
60873;SDS011;46715;40.642;-7.920;2023-02-28T06:22:29;2.97;;;1.50;;
60873;SDS011;46715;40.642;-7.920;2023-02-28T06:24:38;4.18;;;1.55;;
60873;SDS011;46715;40.642;-7.920;2023-02-28T06:26:38;2.55;;;1.60;;
60873;SDS011;46715;40.642;-7.920;2023-02-28T06:28:39;4.60;;;2.10;;
60873;SDS011;46715;40.642;-7.920;2023-02-28T06:30:40;6.95;;;1.95;;
60873;SDS011;46715;40.642;-7.920;2023-02-28T06:32:41;4.73;;;1.73;;
60873;SDS011;46715;40.642;-7.920;2023-02-28T06:34:42;3.60;;;2.27;;
60873;SDS011;46715;40.642;-7.920;2023-02-28T06:36:43;4.68;;;1.75;;
60873;SDS011;46715;40.642;-7.920;2023-02-28T06:38:44;3.30;;;1.83;;
60873;SDS011;46715;40.642;-7.920;2023-02-28T06:42:53;2.20;;;1.55;;
60873;SDS011;46715;40.642;-7.920;2023-02-28T06:44:54;5.18;;;2.20;;
60873;SDS011;46715;40.642;-7.920;2023-02-28T06:46:56;9.30;;;2.42;;
60873;SDS011;46715;40.642;-7.920;2023-02-28T06:49:04;5.00;;;2.30;;
60873;SDS011;46715;40.642;-7.920;2023-02-28T06:51:06;6.47;;;2.30;;
60873;SDS011;46715;40.642;-7.920;2023-02-28T06:53:08;2.97;;;1.70;;
60873;SDS011;46715;40.642;-7.920;2023-02-28T06:55:09;3.10;;;1.90;;
60873;SDS011;46715;40.642;-7.920;2023-02-28T06:57:17;2.63;;;1.88;;
60873;SDS011;46715;40.642;-7.920;2023-02-28T06:59:17;4.07;;;2.10;;
60873;SDS011;46715;40.642;-7.920;2023-02-28T07:01:18;3.15;;;2.13;;
60873;SDS011;46715;40.642;-7.920;2023-02-28T07:03:19;4.63;;;2.20;;
60873;SDS011;46715;40.642;-7.920;2023-02-28T07:05:27;4.28;;;2.13;;
60873;SDS011;46715;40.642;-7.920;2023-02-28T07:07:27;4.78;;;2.40;;
60873;SDS011;46715;40.642;-7.920;2023-02-28T07:09:35;4.97;;;2.28;;
60873;SDS011;46715;40.642;-7.920;2023-02-28T07:11:35;3.67;;;2.33;;
60873;SDS011;46715;40.642;-7.920;2023-02-28T07:13:36;4.82;;;2.15;;
60873;SDS011;46715;40.642;-7.920;2023-02-28T07:15:37;4.90;;;2.33;;
60873;SDS011;46715;40.642;-7.920;2023-02-28T07:17:38;3.40;;;2.30;;
60873;SDS011;46715;40.642;-7.920;2023-02-28T07:19:39;3.00;;;1.90;;
60873;SDS011;46715;40.642;-7.920;2023-02-28T07:21:40;3.07;;;2.07;;
60873;SDS011;46715;40.642;-7.920;2023-02-28T07:23:40;7.30;;;2.58;;
60873;SDS011;46715;40.642;-7.920;2023-02-28T07:25:45;3.55;;;2.38;;
60873;SDS011;46715;40.642;-7.920;2023-02-28T07:27:46;4.03;;;2.10;;
60873;SDS011;46715;40.642;-7.920;2023-02-28T07:29:47;4.30;;;2.40;;
60873;SDS011;46715;40.642;-7.920;2023-02-28T07:31:48;5.13;;;2.50;;
60873;SDS011;46715;40.642;-7.920;2023-02-28T07:33:50;5.28;;;2.70;;
60873;SDS011;46715;40.642;-7.920;2023-02-28T07:35:51;6.28;;;2.85;;
60873;SDS011;46715;40.642;-7.920;2023-02-28T07:37:52;4.60;;;2.37;;
60873;SDS011;46715;40.642;-7.920;2023-02-28T07:39:53;6.75;;;2.42;;
60873;SDS011;46715;40.642;-7.920;2023-02-28T07:41:53;5.85;;;2.67;;
60873;SDS011;46715;40.642;-7.920;2023-02-28T07:43:59;4.43;;;2.60;;
60873;SDS011;46715;40.642;-7.920;2023-02-28T07:46:01;5.30;;;2.53;;
60873;SDS011;46715;40.642;-7.920;2023-02-28T07:48:06;6.25;;;2.50;;
60873;SDS011;46715;40.642;-7.920;2023-02-28T07:50:17;6.15;;;2.25;;
60873;SDS011;46715;40.642;-7.920;2023-02-28T07:52:17;3.70;;;2.40;;
60873;SDS011;46715;40.642;-7.920;2023-02-28T07:54:18;5.15;;;3.08;;
60873;SDS011;46715;40.642;-7.920;2023-02-28T07:56:19;7.25;;;3.47;;
60873;SDS011;46715;40.642;-7.920;2023-02-28T07:58:26;7.80;;;6.15;;
60873;SDS011;46715;40.642;-7.920;2023-02-28T08:00:27;22.15;;;16.48;;
60873;SDS011;46715;40.642;-7.920;2023-02-28T08:02:29;22.33;;;14.65;;
60873;SDS011;46715;40.642;-7.920;2023-02-28T08:04:31;27.93;;;20.43;;
60873;SDS011;46715;40.642;-7.920;2023-02-28T08:06:35;18.35;;;11.75;;
60873;SDS011;46715;40.642;-7.920;2023-02-28T08:08:36;6.33;;;3.13;;
60873;SDS011;46715;40.642;-7.920;2023-02-28T08:10:37;7.18;;;5.00;;
60873;SDS011;46715;40.642;-7.920;2023-02-28T08:12:38;5.57;;;2.53;;
60873;SDS011;46715;40.642;-7.920;2023-02-28T08:14:38;4.73;;;2.00;;
60873;SDS011;46715;40.642;-7.920;2023-02-28T08:16:39;7.03;;;2.73;;
60873;SDS011;46715;40.642;-7.920;2023-02-28T08:18:40;3.37;;;2.00;;
60873;SDS011;46715;40.642;-7.920;2023-02-28T08:20:41;5.27;;;2.80;;
60873;SDS011;46715;40.642;-7.920;2023-02-28T08:22:42;4.43;;;2.93;;
60873;SDS011;46715;40.642;-7.920;2023-02-28T08:24:43;3.90;;;2.37;;
60873;SDS011;46715;40.642;-7.920;2023-02-28T08:26:47;12.40;;;9.00;;
60873;SDS011;46715;40.642;-7.920;2023-02-28T08:28:48;3.67;;;2.10;;
60873;SDS011;46715;40.642;-7.920;2023-02-28T08:30:49;5.47;;;2.37;;
60873;SDS011;46715;40.642;-7.920;2023-02-28T08:32:50;4.63;;;2.00;;
60873;SDS011;46715;40.642;-7.920;2023-02-28T08:34:51;5.77;;;3.10;;
60873;SDS011;46715;40.642;-7.920;2023-02-28T08:36:51;4.03;;;2.20;;
60873;SDS011;46715;40.642;-7.920;2023-02-28T08:38:53;10.00;;;2.88;;
60873;SDS011;46715;40.642;-7.920;2023-02-28T08:40:57;4.27;;;2.50;;
60873;SDS011;46715;40.642;-7.920;2023-02-28T08:42:59;7.05;;;2.65;;
60873;SDS011;46715;40.642;-7.920;2023-02-28T08:45:00;7.63;;;2.63;;
60873;SDS011;46715;40.642;-7.920;2023-02-28T08:47:01;4.27;;;2.47;;
60873;SDS011;46715;40.642;-7.920;2023-02-28T08:49:02;4.10;;;2.30;;
60873;SDS011;46715;40.642;-7.920;2023-02-28T08:51:04;4.07;;;2.35;;
60873;SDS011;46715;40.642;-7.920;2023-02-28T08:53:09;4.32;;;2.10;;
60873;SDS011;46715;40.642;-7.920;2023-02-28T08:55:10;3.97;;;2.23;;
60873;SDS011;46715;40.642;-7.920;2023-02-28T08:57:10;8.13;;;2.93;;
60873;SDS011;46715;40.642;-7.920;2023-02-28T08:59:11;6.33;;;2.77;;
60873;SDS011;46715;40.642;-7.920;2023-02-28T09:01:14;4.73;;;2.40;;
60873;SDS011;46715;40.642;-7.920;2023-02-28T09:03:16;4.38;;;2.40;;
60873;SDS011;46715;40.642;-7.920;2023-02-28T09:05:17;9.80;;;2.72;;
60873;SDS011;46715;40.642;-7.920;2023-02-28T09:07:18;9.85;;;2.70;;
60873;SDS011;46715;40.642;-7.920;2023-02-28T09:09:19;3.73;;;2.30;;
60873;SDS011;46715;40.642;-7.920;2023-02-28T09:11:20;6.53;;;2.80;;
60873;SDS011;46715;40.642;-7.920;2023-02-28T09:13:21;6.23;;;2.60;;
60873;SDS011;46715;40.642;-7.920;2023-02-28T09:15:22;5.45;;;2.72;;
60873;SDS011;46715;40.642;-7.920;2023-02-28T09:17:23;6.33;;;2.90;;
60873;SDS011;46715;40.642;-7.920;2023-02-28T09:19:30;2.88;;;2.08;;
60873;SDS011;46715;40.642;-7.920;2023-02-28T09:21:31;3.67;;;2.10;;
60873;SDS011;46715;40.642;-7.920;2023-02-28T09:23:32;7.03;;;2.42;;
60873;SDS011;46715;40.642;-7.920;2023-02-28T09:25:33;4.13;;;2.43;;
60873;SDS011;46715;40.642;-7.920;2023-02-28T09:27:35;6.40;;;2.15;;
60873;SDS011;46715;40.642;-7.920;2023-02-28T09:29:37;9.57;;;2.33;;
60873;SDS011;46715;40.642;-7.920;2023-02-28T09:31:38;3.50;;;2.25;;
60873;SDS011;46715;40.642;-7.920;2023-02-28T09:33:39;4.80;;;1.93;;
60873;SDS011;46715;40.642;-7.920;2023-02-28T09:35:40;4.90;;;1.97;;
60873;SDS011;46715;40.642;-7.920;2023-02-28T09:37:41;4.40;;;2.25;;
60873;SDS011;46715;40.642;-7.920;2023-02-28T09:39:48;6.05;;;2.05;;
60873;SDS011;46715;40.642;-7.920;2023-02-28T09:41:50;4.50;;;2.40;;
60873;SDS011;46715;40.642;-7.920;2023-02-28T09:43:53;6.15;;;3.05;;
60873;SDS011;46715;40.642;-7.920;2023-02-28T09:45:59;5.25;;;2.50;;
60873;SDS011;46715;40.642;-7.920;2023-02-28T09:50:19;6.03;;;2.65;;
60873;SDS011;46715;40.642;-7.920;2023-02-28T09:52:36;4.88;;;2.55;;
60873;SDS011;46715;40.642;-7.920;2023-02-28T09:54:37;7.00;;;2.90;;
60873;SDS011;46715;40.642;-7.920;2023-02-28T09:56:47;7.10;;;2.50;;
60873;SDS011;46715;40.642;-7.920;2023-02-28T10:03:58;5.57;;;2.00;;
60873;SDS011;46715;40.642;-7.920;2023-02-28T10:08:18;5.47;;;2.38;;
60873;SDS011;46715;40.642;-7.920;2023-02-28T10:10:44;5.03;;;1.95;;
60873;SDS011;46715;40.642;-7.920;2023-02-28T10:12:47;5.38;;;2.70;;
60873;SDS011;46715;40.642;-7.920;2023-02-28T10:14:54;6.60;;;2.40;;
60873;SDS011;46715;40.642;-7.920;2023-02-28T10:17:13;5.35;;;2.20;;
60873;SDS011;46715;40.642;-7.920;2023-02-28T10:19:40;7.80;;;2.85;;
60873;SDS011;46715;40.642;-7.920;2023-02-28T10:22:08;4.50;;;2.38;;
60873;SDS011;46715;40.642;-7.920;2023-02-28T10:24:14;7.18;;;4.88;;
60873;SDS011;46715;40.642;-7.920;2023-02-28T10:26:39;4.88;;;2.63;;
60873;SDS011;46715;40.642;-7.920;2023-02-28T10:28:44;7.15;;;2.97;;
60873;SDS011;46715;40.642;-7.920;2023-02-28T10:30:53;7.60;;;3.00;;
60873;SDS011;46715;40.642;-7.920;2023-02-28T10:32:55;3.95;;;2.50;;
60873;SDS011;46715;40.642;-7.920;2023-02-28T10:34:57;7.25;;;2.78;;
60873;SDS011;46715;40.642;-7.920;2023-02-28T10:37:18;5.15;;;2.67;;
60873;SDS011;46715;40.642;-7.920;2023-02-28T10:41:46;2.88;;;2.50;;
60873;SDS011;46715;40.642;-7.920;2023-02-28T10:43:47;4.37;;;2.53;;
60873;SDS011;46715;40.642;-7.920;2023-02-28T10:45:53;5.47;;;2.42;;
60873;SDS011;46715;40.642;-7.920;2023-02-28T10:47:59;4.50;;;2.40;;
60873;SDS011;46715;40.642;-7.920;2023-02-28T10:50:05;5.22;;;2.42;;
60873;SDS011;46715;40.642;-7.920;2023-02-28T10:52:08;4.53;;;2.53;;
60873;SDS011;46715;40.642;-7.920;2023-02-28T10:54:21;4.28;;;2.28;;
60873;SDS011;46715;40.642;-7.920;2023-02-28T10:56:29;6.00;;;2.55;;
60873;SDS011;46715;40.642;-7.920;2023-02-28T10:58:34;3.33;;;2.20;;
60873;SDS011;46715;40.642;-7.920;2023-02-28T11:00:42;6.07;;;2.60;;
60873;SDS011;46715;40.642;-7.920;2023-02-28T11:02:43;4.53;;;2.38;;
60873;SDS011;46715;40.642;-7.920;2023-02-28T11:04:44;4.97;;;2.88;;
60873;SDS011;46715;40.642;-7.920;2023-02-28T11:06:45;6.50;;;2.55;;
60873;SDS011;46715;40.642;-7.920;2023-02-28T11:08:48;4.10;;;2.30;;
60873;SDS011;46715;40.642;-7.920;2023-02-28T11:10:55;6.97;;;2.53;;
60873;SDS011;46715;40.642;-7.920;2023-02-28T11:12:58;5.93;;;2.80;;
60873;SDS011;46715;40.642;-7.920;2023-02-28T11:17:13;5.10;;;2.50;;
60873;SDS011;46715;40.642;-7.920;2023-02-28T11:19:20;7.20;;;2.50;;
60873;SDS011;46715;40.642;-7.920;2023-02-28T11:21:27;4.32;;;2.10;;
60873;SDS011;46715;40.642;-7.920;2023-02-28T11:23:39;8.07;;;2.60;;
60873;SDS011;46715;40.642;-7.920;2023-02-28T11:25:45;4.72;;;2.50;;
60873;SDS011;46715;40.642;-7.920;2023-02-28T11:27:55;6.72;;;3.08;;
60873;SDS011;46715;40.642;-7.920;2023-02-28T11:30:02;7.43;;;3.03;;
60873;SDS011;46715;40.642;-7.920;2023-02-28T11:32:20;4.28;;;2.22;;
60873;SDS011;46715;40.642;-7.920;2023-02-28T11:34:23;8.43;;;3.72;;
60873;SDS011;46715;40.642;-7.920;2023-02-28T11:36:29;3.30;;;2.03;;
60873;SDS011;46715;40.642;-7.920;2023-02-28T11:38:32;5.13;;;2.45;;
60873;SDS011;46715;40.642;-7.920;2023-02-28T11:40:59;5.38;;;2.50;;
60873;SDS011;46715;40.642;-7.920;2023-02-28T11:43:36;5.65;;;2.38;;
60873;SDS011;46715;40.642;-7.920;2023-02-28T11:55:27;9.60;;;4.10;;
60873;SDS011;46715;40.642;-7.920;2023-02-28T12:02:24;6.13;;;2.30;;
60873;SDS011;46715;40.642;-7.920;2023-02-28T12:16:47;6.30;;;2.47;;
60873;SDS011;46715;40.642;-7.920;2023-02-28T12:30:53;4.38;;;1.95;;
60873;SDS011;46715;40.642;-7.920;2023-02-28T12:32:56;3.67;;;2.42;;
60873;SDS011;46715;40.642;-7.920;2023-02-28T12:35:06;3.80;;;2.08;;
60873;SDS011;46715;40.642;-7.920;2023-02-28T12:37:15;4.32;;;2.70;;
60873;SDS011;46715;40.642;-7.920;2023-02-28T12:39:24;4.57;;;1.77;;
60873;SDS011;46715;40.642;-7.920;2023-02-28T12:41:40;3.20;;;1.92;;
60873;SDS011;46715;40.642;-7.920;2023-02-28T12:43:47;3.03;;;1.70;;
60873;SDS011;46715;40.642;-7.920;2023-02-28T12:45:57;4.40;;;1.90;;
60873;SDS011;46715;40.642;-7.920;2023-02-28T12:48:04;3.63;;;2.22;;
60873;SDS011;46715;40.642;-7.920;2023-02-28T12:50:09;5.07;;;2.20;;
60873;SDS011;46715;40.642;-7.920;2023-02-28T12:52:11;2.50;;;1.63;;
60873;SDS011;46715;40.642;-7.920;2023-02-28T12:58:53;2.88;;;1.77;;
60873;SDS011;46715;40.642;-7.920;2023-02-28T13:01:15;5.75;;;2.03;;
60873;SDS011;46715;40.642;-7.920;2023-02-28T13:10:24;7.57;;;4.35;;
60873;SDS011;46715;40.642;-7.920;2023-02-28T13:12:25;3.53;;;2.25;;
60873;SDS011;46715;40.642;-7.920;2023-02-28T13:14:35;2.83;;;2.08;;
60873;SDS011;46715;40.642;-7.920;2023-02-28T13:19:09;3.10;;;2.20;;
60873;SDS011;46715;40.642;-7.920;2023-02-28T13:21:24;6.63;;;4.55;;
60873;SDS011;46715;40.642;-7.920;2023-02-28T13:23:55;5.63;;;2.53;;
60873;SDS011;46715;40.642;-7.920;2023-02-28T13:25:58;3.22;;;1.90;;
60873;SDS011;46715;40.642;-7.920;2023-02-28T13:28:02;3.97;;;1.95;;
60873;SDS011;46715;40.642;-7.920;2023-02-28T13:33:11;3.67;;;2.20;;
60873;SDS011;46715;40.642;-7.920;2023-02-28T13:35:35;3.08;;;2.10;;
60873;SDS011;46715;40.642;-7.920;2023-02-28T13:37:45;2.92;;;1.83;;
60873;SDS011;46715;40.642;-7.920;2023-02-28T13:44:22;4.85;;;1.50;;
60873;SDS011;46715;40.642;-7.920;2023-02-28T13:46:26;2.92;;;1.83;;
60873;SDS011;46715;40.642;-7.920;2023-02-28T13:48:27;3.93;;;2.03;;
60873;SDS011;46715;40.642;-7.920;2023-02-28T13:50:33;6.35;;;2.17;;
60873;SDS011;46715;40.642;-7.920;2023-02-28T13:52:37;3.40;;;1.90;;
60873;SDS011;46715;40.642;-7.920;2023-02-28T13:57:52;4.75;;;1.80;;
60873;SDS011;46715;40.642;-7.920;2023-02-28T14:00:23;5.75;;;2.00;;
60873;SDS011;46715;40.642;-7.920;2023-02-28T14:03:07;5.60;;;1.80;;
60873;SDS011;46715;40.642;-7.920;2023-02-28T14:05:15;2.95;;;1.85;;
60873;SDS011;46715;40.642;-7.920;2023-02-28T14:07:23;4.45;;;2.20;;